Time;durP1;ratioP1;P1;durP2;ratioP2;P2;SDS_P1;SDS_P2;PMS_P1;PMS_P2;Temp;Humidity;BMP_temperature;BMP_pressure;BME280_temperature;BME280_humidity;BME280_pressure;Samples;Min_cycle;Max_cycle;Signal;HPM_P1;HPM_P2
2022/07/09 00:01:03;;;;;;;4.90;4.10;;;22.20;87.30;;;;;;5029705;28;20465;-83
2022/07/09 00:03:30;;;;;;;5.93;3.60;;;22.30;87.90;;;;;;5034795;28;20854;-82
2022/07/09 00:05:57;;;;;;;6.40;4.40;;;22.20;87.60;;;;;;5029946;28;20477;-82
2022/07/09 00:08:24;;;;;;;5.43;3.90;;;22.20;87.90;;;;;;5032304;28;20480;-83
2022/07/09 00:10:51;;;;;;;4.07;3.47;;;22.20;88.20;;;;;;5021014;28;20450;-83
2022/07/09 00:13:18;;;;;;;4.63;3.50;;;22.20;88.20;;;;;;5022874;28;20886;-82
2022/07/09 00:15:45;;;;;;;4.13;3.40;;;22.20;88.30;;;;;;5038095;28;20457;-82
2022/07/09 00:18:12;;;;;;;4.93;3.80;;;22.20;88.30;;;;;;5032767;28;20524;-84
2022/07/09 00:20:38;;;;;;;5.43;3.80;;;22.50;87.50;;;;;;5029420;28;20460;-83
2022/07/09 00:23:05;;;;;;;4.97;3.23;;;22.60;87.30;;;;;;5025708;28;20450;-83
2022/07/09 00:25:32;;;;;;;6.00;4.00;;;22.20;87.70;;;;;;5025009;28;20485;-82
2022/07/09 00:27:59;;;;;;;3.70;2.90;;;22.00;89.10;;;;;;5026714;28;21105;-83
2022/07/09 00:30:26;;;;;;;6.53;3.83;;;21.90;90.10;;;;;;5027565;28;20531;-83
2022/07/09 00:32:52;;;;;;;5.93;3.50;;;22.00;90.10;;;;;;5029373;28;20457;-84
2022/07/09 00:35:19;;;;;;;4.10;3.70;;;22.00;90.00;;;;;;5028564;28;20519;-81
2022/07/09 00:37:46;;;;;;;4.60;3.23;;;21.90;90.30;;;;;;5028531;28;20476;-82
2022/07/09 00:40:12;;;;;;;4.43;3.60;;;21.90;90.50;;;;;;5029527;28;20515;-81
2022/07/09 00:42:39;;;;;;;7.90;4.47;;;21.80;90.60;;;;;;5029789;28;20465;-81
2022/07/09 00:45:06;;;;;;;5.00;3.90;;;21.80;91.00;;;;;;5028447;28;20497;-82
2022/07/09 00:47:33;;;;;;;5.17;3.20;;;21.80;91.00;;;;;;5044650;28;20477;-80
2022/07/09 00:50:00;;;;;;;4.83;3.60;;;21.70;91.20;;;;;;5030954;28;20953;-82
2022/07/09 00:52:28;;;;;;;3.33;3.03;;;21.70;91.30;;;;;;5029471;28;20548;-82
2022/07/09 00:54:58;;;;;;;5.40;3.97;;;21.60;91.50;;;;;;5031843;28;20471;-81
2022/07/09 00:57:25;;;;;;;4.90;3.50;;;21.60;91.60;;;;;;5029071;28;20997;-81
2022/07/09 00:59:51;;;;;;;6.70;5.10;;;21.50;91.80;;;;;;5033495;28;20495;-81
2022/07/09 01:02:21;;;;;;;4.40;4.00;;;21.40;92.30;;;;;;5034719;28;20464;-80
2022/07/09 01:04:48;;;;;;;7.10;4.60;;;21.20;92.70;;;;;;5028749;28;20487;-80
2022/07/09 01:07:15;;;;;;;4.87;4.33;;;21.10;93.10;;;;;;5034600;28;20468;-81
2022/07/09 01:09:41;;;;;;;6.37;4.40;;;21.10;93.30;;;;;;5034194;28;20541;-79
2022/07/09 01:12:08;;;;;;;6.10;3.63;;;21.00;93.50;;;;;;5037598;28;20525;-80
2022/07/09 01:14:35;;;;;;;5.40;4.30;;;21.00;93.70;;;;;;5037048;28;20457;-79
2022/07/09 01:17:04;;;;;;;4.60;3.97;;;21.00;93.80;;;;;;5034692;28;20485;-81
2022/07/09 01:19:32;;;;;;;3.73;3.43;;;21.10;93.70;;;;;;5039203;28;20477;-81
2022/07/09 01:21:59;;;;;;;4.60;4.10;;;21.10;93.70;;;;;;5039208;28;20927;-82
2022/07/09 01:24:31;;;;;;;6.40;3.93;;;21.10;93.70;;;;;;5042130;28;20495;-79
2022/07/09 01:26:58;;;;;;;7.40;3.53;;;21.10;93.70;;;;;;5033359;28;20476;-81
2022/07/09 01:29:24;;;;;;;5.53;3.90;;;21.10;93.60;;;;;;5031309;28;20539;-83
2022/07/09 01:31:51;;;;;;;6.13;5.23;;;21.10;93.50;;;;;;5027056;28;20489;-82
2022/07/09 01:34:18;;;;;;;6.07;4.13;;;21.20;93.40;;;;;;5028610;28;20481;-81
2022/07/09 01:36:45;;;;;;;4.20;3.70;;;21.10;93.40;;;;;;5026167;28;20481;-82
2022/07/09 01:39:12;;;;;;;5.37;4.40;;;21.10;93.40;;;;;;5023376;28;20461;-81
2022/07/09 01:41:38;;;;;;;6.90;4.47;;;21.20;93.50;;;;;;5025939;28;20461;-82
2022/07/09 01:44:06;;;;;;;5.03;4.20;;;21.20;93.50;;;;;;5027906;28;20445;-83
2022/07/09 01:46:33;;;;;;;6.10;5.10;;;21.20;93.60;;;;;;5028020;28;20481;-81
2022/07/09 01:49:00;;;;;;;6.50;4.90;;;21.10;93.60;;;;;;5026846;28;20473;-82
2022/07/09 01:51:27;;;;;;;8.07;4.20;;;21.10;93.80;;;;;;5029544;28;20456;-80
2022/07/09 01:53:53;;;;;;;7.90;4.20;;;21.00;93.90;;;;;;5028120;28;20449;-81
2022/07/09 01:56:20;;;;;;;6.73;4.70;;;21.00;94.10;;;;;;5030553;28;20640;-82
2022/07/09 01:58:47;;;;;;;5.10;4.20;;;20.90;94.20;;;;;;5049829;28;20450;-81
2022/07/09 02:01:13;;;;;;;6.87;4.77;;;20.90;94.20;;;;;;5048838;28;20461;-82
2022/07/09 02:03:40;;;;;;;6.17;4.10;;;20.80;94.20;;;;;;5038234;28;20493;-81
2022/07/09 02:06:06;;;;;;;6.97;4.53;;;20.80;94.40;;;;;;5028000;28;20547;-83
2022/07/09 02:08:33;;;;;;;4.50;4.10;;;20.80;94.50;;;;;;5032025;28;20523;-82
2022/07/09 02:11:01;;;;;;;7.73;3.80;;;20.70;94.60;;;;;;5030496;28;20450;-83
2022/07/09 02:13:27;;;;;;;4.63;4.17;;;20.70;94.70;;;;;;5032938;28;20536;-83
2022/07/09 02:15:54;;;;;;;5.37;4.10;;;20.60;94.80;;;;;;5026141;28;20453;-81
2022/07/09 02:18:21;;;;;;;6.30;4.50;;;20.60;94.90;;;;;;5025773;28;20519;-83
2022/07/09 02:20:47;;;;;;;7.77;4.30;;;20.60;94.90;;;;;;5030331;28;20491;-83
2022/07/09 02:23:14;;;;;;;7.50;4.00;;;20.70;94.90;;;;;;5027564;28;20480;-83
2022/07/09 02:25:41;;;;;;;5.17;4.03;;;20.70;94.90;;;;;;5026950;28;20543;-83
2022/07/09 02:28:07;;;;;;;8.50;4.47;;;20.70;94.90;;;;;;5028320;28;21061;-83
2022/07/09 02:30:36;;;;;;;8.53;4.33;;;20.60;94.90;;;;;;5025317;28;20806;-83
2022/07/09 02:33:04;;;;;;;4.40;4.00;;;20.60;94.90;;;;;;5026974;28;20450;-82
2022/07/09 02:35:31;;;;;;;4.83;4.30;;;20.60;95.10;;;;;;5028439;28;20794;-82
2022/07/09 02:37:57;;;;;;;6.97;5.37;;;20.50;95.10;;;;;;5028036;28;20540;-83
2022/07/09 02:40:24;;;;;;;6.33;4.20;;;20.40;95.20;;;;;;5018360;28;20461;-82
2022/07/09 02:42:51;;;;;;;6.13;4.60;;;20.40;95.40;;;;;;5025859;28;20461;-82
2022/07/09 02:45:17;;;;;;;7.87;4.60;;;20.40;95.50;;;;;;5032682;28;20496;-82
2022/07/09 02:47:44;;;;;;;8.17;4.67;;;20.40;95.60;;;;;;5026388;28;21073;-82
2022/07/09 02:50:11;;;;;;;8.87;4.37;;;20.40;95.60;;;;;;5021141;28;20540;-81
2022/07/09 02:52:38;;;;;;;6.40;4.40;;;20.40;95.60;;;;;;5025956;28;20465;-83
2022/07/09 02:55:05;;;;;;;7.20;4.70;;;20.40;95.60;;;;;;5023333;28;20466;-82
2022/07/09 02:57:31;;;;;;;12.83;5.40;;;20.40;95.60;;;;;;5022599;28;20528;-83
2022/07/09 02:59:59;;;;;;;4.93;4.30;;;20.40;95.60;;;;;;5026078;28;20491;-81
2022/07/09 03:02:25;;;;;;;9.47;4.17;;;20.50;95.60;;;;;;5025371;28;21168;-80
2022/07/09 03:04:52;;;;;;;5.37;4.27;;;20.40;95.50;;;;;;5024477;28;20466;-81
2022/07/09 03:07:19;;;;;;;5.97;4.70;;;20.50;95.60;;;;;;5029791;28;20477;-81
2022/07/09 03:09:45;;;;;;;7.10;4.33;;;20.40;95.50;;;;;;5039280;28;20450;-82
2022/07/09 03:12:12;;;;;;;5.43;4.27;;;20.40;95.50;;;;;;5038050;28;20449;-81
2022/07/09 03:14:39;;;;;;;9.10;4.73;;;20.50;95.50;;;;;;5042887;28;20433;-81
2022/07/09 03:17:05;;;;;;;7.50;4.53;;;20.40;95.60;;;;;;5039560;28;20473;-81
2022/07/09 03:19:32;;;;;;;8.10;4.60;;;20.40;95.60;;;;;;5028151;28;20464;-81
2022/07/09 03:21:58;;;;;;;7.53;4.67;;;20.40;95.70;;;;;;5028703;28;20456;-82
2022/07/09 03:24:25;;;;;;;5.53;4.90;;;20.40;95.70;;;;;;5034407;28;20449;-80
2022/07/09 03:26:52;;;;;;;8.40;5.10;;;20.50;95.70;;;;;;5032006;28;20485;-80
2022/07/09 03:29:19;;;;;;;7.10;4.73;;;20.50;95.60;;;;;;5037940;28;20503;-82
2022/07/09 03:31:45;;;;;;;5.00;4.20;;;20.50;95.60;;;;;;5037222;28;20461;-83
2022/07/09 03:34:12;;;;;;;7.30;4.37;;;20.50;95.60;;;;;;5036626;28;20449;-83
2022/07/09 03:36:39;;;;;;;5.50;4.47;;;20.40;95.50;;;;;;5035655;28;20484;-81
2022/07/09 03:39:06;;;;;;;6.17;4.67;;;20.40;95.60;;;;;;5028934;28;20461;-83
2022/07/09 03:41:32;;;;;;;7.07;4.53;;;20.40;95.70;;;;;;5029354;28;20472;-83
2022/07/09 03:43:59;;;;;;;7.60;4.80;;;20.50;95.70;;;;;;5034768;28;20548;-83
2022/07/09 03:46:26;;;;;;;9.37;4.40;;;20.40;95.60;;;;;;5037812;28;20485;-82
2022/07/09 03:48:52;;;;;;;6.67;4.37;;;20.40;95.70;;;;;;5038073;28;20511;-82
2022/07/09 03:51:19;;;;;;;5.03;4.50;;;20.40;95.70;;;;;;5031926;28;20460;-83
2022/07/09 03:53:46;;;;;;;6.60;5.07;;;20.40;95.50;;;;;;5031418;28;20456;-83
2022/07/09 03:56:12;;;;;;;5.50;4.40;;;20.50;95.60;;;;;;5033112;28;21116;-82
2022/07/09 03:58:39;;;;;;;5.67;5.10;;;20.40;95.60;;;;;;5031146;28;20473;-82
2022/07/09 04:01:05;;;;;;;7.07;5.50;;;20.40;95.60;;;;;;5033922;28;20468;-82
2022/07/09 04:03:32;;;;;;;6.97;5.50;;;20.40;95.60;;;;;;5032467;28;20477;-84
2022/07/09 04:05:59;;;;;;;11.40;5.27;;;20.40;95.70;;;;;;5034761;28;20831;-83
2022/07/09 04:08:25;;;;;;;7.90;5.00;;;20.30;95.70;;;;;;5029348;28;20922;-83
2022/07/09 04:10:52;;;;;;;6.50;5.00;;;20.30;95.80;;;;;;5030268;28;20823;-83
2022/07/09 04:13:19;;;;;;;5.57;5.00;;;20.30;95.90;;;;;;5025634;28;20458;-82
2022/07/09 04:15:46;;;;;;;7.07;4.83;;;20.30;95.90;;;;;;5025295;28;20450;-82
2022/07/09 04:18:14;;;;;;;6.00;5.20;;;20.40;95.90;;;;;;5028401;28;20497;-83
2022/07/09 04:20:41;;;;;;;7.53;5.17;;;20.40;95.90;;;;;;5030550;28;20480;-83
2022/07/09 04:23:08;;;;;;;8.63;5.40;;;20.30;96.00;;;;;;5027058;28;20834;-83
2022/07/09 04:25:34;;;;;;;6.43;5.33;;;20.30;96.10;;;;;;5029794;28;21023;-82
2022/07/09 04:28:01;;;;;;;8.13;7.33;;;20.20;96.30;;;;;;5029597;28;20487;-81
2022/07/09 04:30:28;;;;;;;6.60;6.00;;;20.10;96.50;;;;;;5026510;28;20489;-83
2022/07/09 04:32:55;;;;;;;8.57;6.97;;;20.10;96.70;;;;;;5029126;28;20532;-80
2022/07/09 04:35:22;;;;;;;6.83;6.00;;;20.10;96.80;;;;;;5026307;28;20450;-83
2022/07/09 04:37:49;;;;;;;8.17;6.07;;;20.10;96.80;;;;;;5029135;28;20478;-80
2022/07/09 04:40:16;;;;;;;7.60;6.77;;;20.10;96.80;;;;;;5031470;28;20450;-81
2022/07/09 04:42:43;;;;;;;7.80;7.00;;;20.20;96.70;;;;;;5027841;28;20460;-82
2022/07/09 04:45:10;;;;;;;9.03;7.50;;;20.20;96.80;;;;;;5030399;28;20454;-81
2022/07/09 04:47:37;;;;;;;9.30;7.97;;;20.20;96.80;;;;;;5031251;28;20477;-83
2022/07/09 04:50:04;;;;;;;8.43;7.60;;;20.20;96.90;;;;;;5027602;28;20476;-82
2022/07/09 04:52:31;;;;;;;8.93;8.07;;;20.20;97.00;;;;;;5024025;28;20496;-82
2022/07/09 04:54:58;;;;;;;11.40;8.17;;;20.20;97.10;;;;;;5031497;28;20463;-83
2022/07/09 04:57:24;;;;;;;9.00;8.17;;;20.20;97.20;;;;;;5029384;28;20485;-82
2022/07/09 04:59:51;;;;;;;10.33;8.50;;;20.30;97.20;;;;;;5031806;28;20464;-81
2022/07/09 05:02:17;;;;;;;8.87;7.67;;;20.20;97.30;;;;;;5025841;28;20461;-82
2022/07/09 05:04:44;;;;;;;9.80;8.20;;;20.20;97.40;;;;;;5032124;28;20814;-81
2022/07/09 05:07:11;;;;;;;13.03;8.90;;;20.20;97.50;;;;;;5030775;28;20496;-83
2022/07/09 05:09:37;;;;;;;9.90;8.90;;;20.20;97.60;;;;;;5030475;28;20468;-83
2022/07/09 05:12:04;;;;;;;9.13;8.10;;;20.20;97.70;;;;;;5033016;28;20450;-83
2022/07/09 05:14:31;;;;;;;9.40;8.40;;;20.20;97.60;;;;;;5033334;28;21126;-83
2022/07/09 05:16:57;;;;;;;9.20;8.40;;;20.30;97.60;;;;;;5020768;28;20488;-82
2022/07/09 05:19:24;;;;;;;10.30;8.57;;;20.30;97.40;;;;;;5049240;28;20464;-82
2022/07/09 05:21:51;;;;;;;12.40;9.00;;;20.30;97.40;;;;;;5046546;28;20463;-82
2022/07/09 05:24:17;;;;;;;10.80;8.83;;;20.40;97.50;;;;;;5044046;28;20457;-82
2022/07/09 05:26:44;;;;;;;13.50;8.90;;;20.30;97.40;;;;;;5040336;28;20488;-83
2022/07/09 05:29:11;;;;;;;9.57;8.40;;;20.30;97.50;;;;;;5036676;28;20831;-81
2022/07/09 05:31:37;;;;;;;13.77;9.40;;;20.30;97.50;;;;;;5037317;28;20461;-80
2022/07/09 05:34:05;;;;;;;10.87;9.50;;;20.30;97.70;;;;;;5037801;28;20471;-82
2022/07/09 05:36:32;;;;;;;9.80;8.80;;;20.30;97.80;;;;;;5054057;28;20470;-81
2022/07/09 05:38:59;;;;;;;10.13;8.97;;;20.30;97.70;;;;;;5055136;28;20433;-81
2022/07/09 05:41:27;;;;;;;11.20;9.17;;;20.40;97.70;;;;;;5055107;28;20455;-84
2022/07/09 05:43:54;;;;;;;10.67;9.63;;;20.40;97.70;;;;;;5055756;28;20418;-83
2022/07/09 05:46:20;;;;;;;9.77;8.80;;;20.50;97.60;;;;;;5053135;28;20459;-82
2022/07/09 05:48:47;;;;;;;11.13;9.93;;;20.60;97.50;;;;;;5039831;28;20850;-80
2022/07/09 05:51:14;;;;;;;15.70;10.53;;;20.90;97.20;;;;;;5024169;28;20453;-83
2022/07/09 05:53:40;;;;;;;11.23;10.23;;;20.80;97.00;;;;;;5020883;28;20454;-82
2022/07/09 05:56:07;;;;;;;11.70;10.47;;;20.90;97.00;;;;;;5033444;28;20456;-82
2022/07/09 05:58:34;;;;;;;10.70;9.73;;;20.90;96.90;;;;;;5029678;28;20571;-83
2022/07/09 06:01:02;;;;;;;10.03;9.00;;;20.80;96.90;;;;;;5023970;28;20461;-83
2022/07/09 06:03:28;;;;;;;9.80;8.40;;;20.90;97.00;;;;;;5032116;28;20446;-83
2022/07/09 06:05:55;;;;;;;9.17;8.33;;;21.00;96.90;;;;;;5028670;28;21080;-83
2022/07/09 06:08:22;;;;;;;8.93;8.23;;;21.00;96.90;;;;;;5016629;28;20466;-82
2022/07/09 06:10:48;;;;;;;11.70;8.90;;;21.10;96.70;;;;;;5041842;28;20828;-82
2022/07/09 06:13:15;;;;;;;9.63;8.43;;;21.00;96.70;;;;;;5040793;28;20460;-85
2022/07/09 06:15:42;;;;;;;9.10;8.40;;;20.90;97.00;;;;;;5041204;28;20457;-83
2022/07/09 06:18:08;;;;;;;10.90;8.80;;;20.80;97.30;;;;;;5033549;28;21010;-81
2022/07/09 06:20:35;;;;;;;9.67;8.70;;;20.80;97.40;;;;;;5029253;28;20595;-82
2022/07/09 06:23:06;;;;;;;10.40;8.00;;;20.80;97.60;;;;;;5029004;28;20594;-82
2022/07/09 06:25:32;;;;;;;10.97;7.40;;;21.00;97.50;;;;;;5031542;28;20468;-81
2022/07/09 06:27:59;;;;;;;9.87;8.87;;;21.30;97.20;;;;;;5041557;28;20474;-82
2022/07/09 06:30:26;;;;;;;10.10;7.73;;;21.40;96.50;;;;;;5034264;28;20889;-82
2022/07/09 06:32:52;;;;;;;10.20;8.23;;;21.40;96.60;;;;;;5040342;28;20448;-82
2022/07/09 06:35:19;;;;;;;8.80;7.90;;;21.60;96.40;;;;;;5040552;28;20433;-82
2022/07/09 06:37:46;;;;;;;9.80;7.97;;;21.50;96.50;;;;;;5032475;28;20485;-81
2022/07/09 06:40:13;;;;;;;9.73;7.33;;;21.50;96.60;;;;;;5028993;28;21042;-82
2022/07/09 06:42:39;;;;;;;6.80;6.13;;;21.60;96.60;;;;;;5030325;28;20449;-83
2022/07/09 06:45:07;;;;;;;6.10;5.60;;;21.60;95.90;;;;;;5031143;28;20458;-82
2022/07/09 06:47:36;;;;;;;8.30;5.67;;;21.90;95.60;;;;;;5032190;28;20545;-84
2022/07/09 06:50:09;;;;;;;6.17;5.60;;;21.90;94.90;;;;;;5039190;28;20540;-82
2022/07/09 06:52:36;;;;;;;5.13;4.70;;;21.70;95.20;;;;;;5050195;28;20536;-82
2022/07/09 06:55:03;;;;;;;5.83;5.13;;;21.60;95.50;;;;;;5032327;28;20457;-82
2022/07/09 06:57:30;;;;;;;6.37;5.00;;;21.60;95.70;;;;;;5039719;28;20660;-82
2022/07/09 06:59:57;;;;;;;4.87;4.47;;;21.60;95.70;;;;;;5030516;28;20529;-82
2022/07/09 07:02:23;;;;;;;5.20;4.67;;;21.60;95.60;;;;;;5036138;28;20851;-82
2022/07/09 07:04:50;;;;;;;4.43;4.03;;;21.60;95.20;;;;;;5036489;28;20487;-82
2022/07/09 07:07:17;;;;;;;5.43;3.90;;;21.60;95.00;;;;;;5027845;28;20488;-82
2022/07/09 07:09:43;;;;;;;4.43;4.03;;;21.50;94.80;;;;;;5038065;28;20460;-83
2022/07/09 07:12:10;;;;;;;5.00;4.27;;;22.00;94.60;;;;;;5033487;28;20486;-82
2022/07/09 07:14:37;;;;;;;4.00;3.10;;;22.00;93.90;;;;;;5034766;28;20523;-83
2022/07/09 07:17:04;;;;;;;4.57;2.80;;;21.90;93.90;;;;;;5025706;28;20485;-82
2022/07/09 07:19:31;;;;;;;4.03;2.80;;;21.90;93.80;;;;;;5033000;28;20469;-83
2022/07/09 07:21:58;;;;;;;4.07;3.40;;;21.90;93.80;;;;;;5038043;28;20468;-82
2022/07/09 07:24:25;;;;;;;6.13;4.07;;;22.10;93.70;;;;;;5033578;28;20462;-81
2022/07/09 07:26:51;;;;;;;6.53;4.27;;;22.40;93.10;;;;;;5025887;28;20539;-82
2022/07/09 07:29:18;;;;;;;7.60;5.30;;;22.40;92.40;;;;;;5038502;28;20449;-83
2022/07/09 07:31:45;;;;;;;8.23;4.43;;;22.60;91.80;;;;;;5031585;28;20468;-82
2022/07/09 07:34:12;;;;;;;10.90;4.40;;;22.70;91.70;;;;;;5037865;28;20453;-82
2022/07/09 07:36:38;;;;;;;5.20;4.23;;;23.00;91.40;;;;;;5042558;28;20485;-82
2022/07/09 07:39:05;;;;;;;8.13;4.60;;;23.00;90.80;;;;;;5032104;28;20462;-83
2022/07/09 07:41:31;;;;;;;5.10;4.13;;;23.20;90.60;;;;;;5035020;28;20469;-83
2022/07/09 07:43:58;;;;;;;6.73;3.90;;;23.50;90.10;;;;;;5036639;28;20951;-82
2022/07/09 07:46:25;;;;;;;6.43;3.67;;;23.60;89.60;;;;;;5040896;28;20475;-82
2022/07/09 07:48:53;;;;;;;6.50;4.67;;;23.70;88.70;;;;;;5033742;28;20513;-82
2022/07/09 07:51:20;;;;;;;7.20;4.10;;;23.80;88.20;;;;;;5055555;28;20520;-83
2022/07/09 07:53:47;;;;;;;15.00;6.10;;;23.70;88.30;;;;;;5037801;28;20452;-83
2022/07/09 07:56:13;;;;;;;8.97;6.90;;;23.60;89.20;;;;;;5039320;28;20454;-84
2022/07/09 07:58:40;;;;;;;7.73;6.17;;;23.30;89.30;;;;;;5049676;28;20442;-81
2022/07/09 08:01:07;;;;;;;9.60;6.90;;;23.30;90.00;;;;;;5031158;28;20830;-81
2022/07/09 08:03:34;;;;;;;11.93;9.20;;;23.30;90.00;;;;;;5038377;28;20535;-81
2022/07/09 08:06:01;;;;;;;14.67;8.33;;;23.40;89.80;;;;;;5037947;28;20582;-83
2022/07/09 08:08:27;;;;;;;8.73;7.83;;;23.60;89.30;;;;;;5032328;28;20485;-82
2022/07/09 08:10:54;;;;;;;11.07;7.70;;;23.40;88.70;;;;;;5032486;28;20457;-82
2022/07/09 08:13:21;;;;;;;12.03;7.90;;;23.80;89.00;;;;;;5038009;28;20448;-82
2022/07/09 08:15:48;;;;;;;9.93;6.10;;;23.90;87.80;;;;;;5035784;28;20513;-82
2022/07/09 08:18:15;;;;;;;7.10;5.00;;;23.70;87.40;;;;;;5034291;28;20580;-82
2022/07/09 08:20:42;;;;;;;4.47;4.07;;;23.50;87.20;;;;;;5027279;28;20905;-83
2022/07/09 08:23:09;;;;;;;7.20;5.07;;;23.60;86.90;;;;;;5031315;28;20939;-81
2022/07/09 08:25:36;;;;;;;6.20;4.27;;;23.50;86.60;;;;;;5032469;28;20457;-83
2022/07/09 08:28:04;;;;;;;5.77;3.97;;;24.20;84.90;;;;;;5033297;28;20485;-84
2022/07/09 08:30:31;;;;;;;5.90;3.30;;;24.10;84.50;;;;;;5026378;28;20457;-82
2022/07/09 08:32:57;;;;;;;5.83;3.37;;;24.20;84.10;;;;;;5034986;28;20564;-83
2022/07/09 08:35:25;;;;;;;4.40;3.73;;;24.40;83.30;;;;;;5039623;28;20441;-83
2022/07/09 08:37:53;;;;;;;4.93;3.20;;;24.40;83.30;;;;;;5032448;28;20480;-82
2022/07/09 08:40:21;;;;;;;3.43;3.13;;;24.50;82.60;;;;;;5029215;28;20451;-82
2022/07/09 08:42:48;;;;;;;5.30;3.23;;;24.60;82.20;;;;;;5043955;28;20785;-81
2022/07/09 08:45:17;;;;;;;4.20;2.67;;;24.60;82.40;;;;;;5045291;28;20436;-81
2022/07/09 08:47:44;;;;;;;2.20;2.00;;;24.90;80.90;;;;;;5042622;28;20481;-82
2022/07/09 08:50:11;;;;;;;2.17;2.07;;;24.30;81.20;;;;;;5035986;28;20448;-81
2022/07/09 08:52:40;;;;;;;2.70;1.90;;;24.00;82.10;;;;;;5036628;28;20453;-81
2022/07/09 08:55:08;;;;;;;2.17;1.97;;;24.30;82.40;;;;;;5032772;28;20458;-82
2022/07/09 08:57:35;;;;;;;2.20;2.00;;;24.70;80.80;;;;;;5031492;28;20481;-83
2022/07/09 09:00:04;;;;;;;2.97;2.30;;;25.20;79.00;;;;;;5034887;28;20468;-82
2022/07/09 09:02:38;;;;;;;1.87;1.73;;;25.30;78.30;;;;;;5042752;28;20454;-81
2022/07/09 09:05:09;;;;;;;1.87;1.57;;;25.70;77.70;;;;;;5038683;28;20453;-81
2022/07/09 09:07:38;;;;;;;2.00;1.90;;;26.60;74.00;;;;;;5041374;28;20493;-81
2022/07/09 09:13:28;;;;;;;3.57;1.83;;;26.40;72.50;;;;;;4167984;26;20485;-80
2022/07/09 09:16:41;;;;;;;2.60;2.40;;;26.90;70.90;;;;;;5038990;28;20446;-82
2022/07/09 09:19:35;;;;;;;2.20;2.00;;;26.90;69.40;;;;;;4999560;28;20559;-82
2022/07/09 09:23:03;;;;;;;;;;;;;;;;;;;;;
2022/07/09 09:25:37;;;;;;;2.17;2.00;;;26.40;72.00;;;;;;4936586;29;20556;-80
2022/07/09 09:28:52;;;;;;;2.47;1.53;;;25.60;72.00;;;;;;4940264;29;20560;-80
2022/07/09 09:31:54;;;;;;;2.33;2.13;;;25.30;73.50;;;;;;4833645;29;20448;-83
2022/07/09 09:35:14;;;;;;;3.13;1.60;;;25.20;73.80;;;;;;4822056;29;20479;-83
2022/07/09 09:37:59;;;;;;;3.30;2.00;;;26.20;71.40;;;;;;4807464;29;20577;-83
2022/07/09 09:40:27;;;;;;;3.70;2.00;;;26.60;68.60;;;;;;4816017;29;20481;-81
2022/07/09 09:46:29;;;;;;;1.83;1.73;;;27.00;67.00;;;;;;4814099;29;20463;-81
2022/07/09 09:50:08;;;;;;;1.73;1.60;;;26.80;67.80;;;;;;4817363;29;20471;-82
2022/07/09 09:53:20;;;;;;;2.07;1.80;;;27.00;67.60;;;;;;4815371;29;20479;-82
2022/07/09 09:56:30;;;;;;;2.03;1.70;;;28.20;64.40;;;;;;4771190;29;20456;-83
2022/07/09 09:59:06;;;;;;;1.60;1.50;;;30.50;58.20;;;;;;4874538;29;20488;-82
2022/07/09 10:01:36;;;;;;;1.97;1.20;;;29.80;57.10;;;;;;4858681;29;20460;-82
2022/07/09 10:04:28;;;;;;;2.33;1.50;;;29.00;56.90;;;;;;4930368;28;20515;-83
2022/07/09 10:06:56;;;;;;;1.63;1.30;;;28.70;57.80;;;;;;4957118;28;20485;-83
2022/07/09 10:09:25;;;;;;;2.40;1.40;;;28.80;57.70;;;;;;4997451;28;20509;-82
2022/07/09 10:15:26;;;;;;;3.80;1.40;;;28.70;58.20;;;;;;5013907;28;20450;-82
2022/07/09 10:17:54;;;;;;;2.10;1.37;;;29.10;56.80;;;;;;5018246;28;20473;-82
2022/07/09 10:20:33;;;;;;;1.97;1.30;;;28.30;57.80;;;;;;5020400;28;20818;-81
2022/07/09 10:23:03;;;;;;;1.40;1.30;;;27.90;59.10;;;;;;5007011;28;20704;-81
2022/07/09 10:25:45;;;;;;;1.43;1.20;;;28.30;58.10;;;;;;5017594;28;20947;-82
2022/07/09 10:28:19;;;;;;;3.30;1.63;;;29.20;57.00;;;;;;5020090;28;20827;-82
2022/07/09 10:30:47;;;;;;;1.13;1.03;;;28.80;56.40;;;;;;5011162;28;20501;-83
2022/07/09 10:33:30;;;;;;;1.30;1.20;;;28.40;57.90;;;;;;5026871;28;21117;-83
2022/07/09 10:35:57;;;;;;;2.30;1.60;;;27.90;58.30;;;;;;5016796;28;20446;-82
2022/07/09 10:38:36;;;;;;;1.60;1.40;;;27.70;59.20;;;;;;5006019;28;20558;-82
2022/07/09 10:41:03;;;;;;;2.33;1.70;;;27.30;59.70;;;;;;5010307;28;20477;-82
2022/07/09 10:43:49;;;;;;;2.43;1.40;;;27.00;60.70;;;;;;5014960;28;20442;-82
2022/07/09 10:46:15;;;;;;;1.93;1.70;;;26.80;61.20;;;;;;5020434;28;20449;-81
2022/07/09 10:48:44;;;;;;;1.63;1.30;;;26.50;62.50;;;;;;5032213;28;20982;-80
2022/07/09 10:51:22;;;;;;;1.40;1.30;;;26.40;63.80;;;;;;5018270;28;20512;-80
2022/07/09 10:53:49;;;;;;;1.90;1.80;;;26.70;64.00;;;;;;5021558;28;20522;-81
2022/07/09 10:56:22;;;;;;;2.20;1.60;;;26.80;62.70;;;;;;5032941;28;20450;-81
2022/07/09 10:58:50;;;;;;;1.97;1.30;;;26.70;62.90;;;;;;5026223;28;20447;-82
2022/07/09 11:01:21;;;;;;;1.63;1.50;;;27.00;61.80;;;;;;5016232;28;20465;-82
2022/07/09 11:03:51;;;;;;;1.60;1.50;;;27.20;60.90;;;;;;5030018;28;20498;-82
2022/07/09 11:06:18;;;;;;;2.83;1.50;;;27.40;60.40;;;;;;5028480;28;20504;-80
2022/07/09 11:08:44;;;;;;;2.63;1.47;;;27.20;60.00;;;;;;5016907;28;20577;-82
2022/07/09 11:11:11;;;;;;;1.50;1.40;;;27.00;60.60;;;;;;5020530;28;20465;-81
2022/07/09 11:13:38;;;;;;;1.70;1.60;;;26.90;60.90;;;;;;5006134;28;20445;-79
2022/07/09 11:16:05;;;;;;;2.70;1.60;;;26.70;61.70;;;;;;5009599;28;20475;-82
2022/07/09 11:18:31;;;;;;;2.27;1.40;;;26.70;62.50;;;;;;5025818;28;20511;-82
2022/07/09 11:20:58;;;;;;;1.30;1.20;;;27.10;62.20;;;;;;5015177;28;20523;-82
2022/07/09 11:23:26;;;;;;;1.50;1.40;;;27.30;61.10;;;;;;5011127;28;20966;-83
2022/07/09 11:25:54;;;;;;;1.80;1.70;;;27.10;60.90;;;;;;5017390;28;20831;-83
2022/07/09 11:28:28;;;;;;;2.60;1.53;;;26.90;61.70;;;;;;5018894;28;20477;-83
2022/07/09 11:31:03;;;;;;;2.50;1.40;;;27.00;62.00;;;;;;5020574;28;20803;-83
2022/07/09 11:36:19;;;;;;;1.93;1.50;;;26.70;60.50;;;;;;5015710;28;20469;-83
2022/07/09 11:38:51;;;;;;;2.23;1.40;;;26.40;61.60;;;;;;5014999;28;20482;-83
2022/07/09 11:41:18;;;;;;;1.20;1.20;;;26.30;62.10;;;;;;5021818;28;20470;-82
2022/07/09 11:43:50;;;;;;;3.77;1.80;;;26.50;62.60;;;;;;5019412;28;20998;-83
2022/07/09 11:46:20;;;;;;;1.77;1.47;;;26.90;61.30;;;;;;5021741;28;20446;-81
2022/07/09 11:48:54;;;;;;;1.97;1.87;;;26.80;61.40;;;;;;5022393;28;20488;-82
2022/07/09 11:51:31;;;;;;;1.90;1.80;;;26.60;62.10;;;;;;5022500;28;20458;-81
2022/07/09 11:53:59;;;;;;;1.20;1.10;;;26.50;62.50;;;;;;5016854;28;20468;-83
2022/07/09 11:56:25;;;;;;;2.07;1.30;;;26.60;62.90;;;;;;5015533;28;20463;-83
2022/07/09 11:58:52;;;;;;;2.70;1.60;;;26.50;63.70;;;;;;5025200;28;20458;-82
2022/07/09 12:01:22;;;;;;;2.50;2.30;;;26.40;63.20;;;;;;5023087;28;20485;-81
2022/07/09 12:03:50;;;;;;;2.23;2.03;;;26.30;64.00;;;;;;5018287;28;20480;-80
2022/07/09 12:06:17;;;;;;;4.40;2.03;;;26.60;64.20;;;;;;5022314;28;20472;-82
2022/07/09 12:08:43;;;;;;;3.37;3.07;;;27.10;63.00;;;;;;5008525;28;20486;-82
2022/07/09 12:11:10;;;;;;;2.30;1.90;;;27.50;60.90;;;;;;5018297;28;20462;-83
2022/07/09 12:13:37;;;;;;;2.30;2.10;;;27.30;60.90;;;;;;5025793;28;20970;-83
2022/07/09 12:16:04;;;;;;;2.07;1.97;;;27.20;61.00;;;;;;5016864;28;20442;-82
2022/07/09 12:18:31;;;;;;;2.50;2.20;;;27.10;61.40;;;;;;5012434;28;20539;-83
2022/07/09 12:20:58;;;;;;;2.83;2.03;;;26.90;62.50;;;;;;5020725;28;20449;-81
2022/07/09 12:23:25;;;;;;;2.40;2.20;;;27.00;61.80;;;;;;5014009;28;21035;-82
2022/07/09 12:25:52;;;;;;;2.10;2.00;;;26.90;62.20;;;;;;5017614;28;20528;-81
2022/07/09 12:28:19;;;;;;;2.50;2.30;;;26.70;62.50;;;;;;5012023;28;20585;-82
2022/07/09 12:30:46;;;;;;;2.40;2.17;;;26.40;62.40;;;;;;5025300;28;20450;-81
2022/07/09 12:33:13;;;;;;;2.63;2.43;;;26.40;63.20;;;;;;5022123;28;20466;-80
2022/07/09 12:35:39;;;;;;;3.33;3.03;;;26.40;63.60;;;;;;5043795;28;20536;-80
2022/07/09 12:38:07;;;;;;;3.07;2.87;;;26.50;63.60;;;;;;5028650;28;20458;-83
2022/07/09 12:40:37;;;;;;;2.67;2.47;;;26.50;63.40;;;;;;5026000;28;20532;-81
2022/07/09 12:43:04;;;;;;;3.20;2.90;;;26.50;63.80;;;;;;5015572;28;20515;-82
2022/07/09 12:45:30;;;;;;;2.80;2.60;;;26.60;63.80;;;;;;5015577;28;20449;-82
2022/07/09 12:47:57;;;;;;;2.83;2.63;;;26.60;63.90;;;;;;5014323;28;20486;-83
2022/07/09 12:50:24;;;;;;;3.50;2.70;;;26.50;64.30;;;;;;5012208;28;20489;-82
2022/07/09 12:52:51;;;;;;;2.97;2.47;;;26.60;64.50;;;;;;5018163;28;20476;-82
2022/07/09 12:55:18;;;;;;;3.73;3.03;;;26.40;64.70;;;;;;5020490;28;20454;-84
2022/07/09 12:57:45;;;;;;;2.50;2.30;;;26.40;64.80;;;;;;5027643;28;20481;-82
2022/07/09 13:00:13;;;;;;;3.00;2.40;;;26.30;64.60;;;;;;5019935;28;20453;-82
2022/07/09 13:02:40;;;;;;;3.10;2.77;;;26.10;64.80;;;;;;5029845;28;20973;-80
2022/07/09 13:05:09;;;;;;;3.50;3.20;;;26.10;65.50;;;;;;5018028;28;20843;-81
2022/07/09 13:07:35;;;;;;;3.27;3.00;;;26.00;66.30;;;;;;5017602;28;20485;-81
2022/07/09 13:10:03;;;;;;;4.33;3.90;;;25.70;67.30;;;;;;5026240;28;20446;-82